Westville, Indiana
Current Conditions -  °F | °C
As of 2:56 PM on Monday 24 Nov 2014 (Local Time) from KVPZ Reporting Station
Overcast Overcast  
Wind Chill: 18°   Ceiling: 1100
Heat Index: 32°   Visibility: 10mi
Dew Point: 29°   Wind: 26mph
Humidity: 88%   Direction: 240°WSW
Pressure: 29.55"   Gusts: 37mph
Location:  41.54°N, 86.9°W
Report Text: KVPZ 242056Z AUTO 24023G32KT 10SM OVC011 00/M02 A2955 RMK AO2 PK WND 25036/2036 UPB06E16B30E33SNB19E30 SLP009 P0000 60000 T00001017 53054 TSNO
Loading
Personal Weather Stations






























Interactive Weather Map New forecast layout! Learn more

10-Day Weather Forecast

Advertisements
Track Severe Weather on mobile